createdAt,value
2017-11-16T00:00:28.419Z,86.69
2017-11-16T00:01:08.777Z,87.13
2017-11-16T00:01:49.129Z,87.13
2017-11-16T00:02:29.605Z,87.51
2017-11-16T00:03:10.161Z,87.13
2017-11-16T00:03:50.585Z,86.94
2017-11-16T00:04:31.155Z,87.03
2017-11-16T00:05:11.431Z,87.32
2017-11-16T00:05:51.806Z,87.7
2017-11-16T00:06:32.354Z,87.32
2017-11-16T00:07:12.666Z,87.32
2017-11-16T00:07:53.098Z,87.23
2017-11-16T00:08:33.599Z,86.94
2017-11-16T00:09:13.982Z,87.13
2017-11-16T00:09:54.421Z,86.94
2017-11-16T00:10:34.685Z,87.03
2017-11-16T00:11:15.166Z,87.32
2017-11-16T00:11:55.507Z,86.75
2017-11-16T00:12:35.985Z,87.03
2017-11-16T00:13:16.355Z,87.13
2017-11-16T00:13:56.890Z,87.13
2017-11-16T00:14:37.146Z,87.13
2017-11-16T00:15:17.596Z,87.41
2017-11-16T00:15:58.099Z,87.23
2017-11-16T00:16:38.449Z,87.13
2017-11-16T00:17:18.903Z,87.32
2017-11-16T00:17:59.359Z,87.32
2017-11-16T00:18:39.743Z,87.03
2017-11-16T00:19:20.269Z,87.03
2017-11-16T00:20:00.642Z,86.94
2017-11-16T00:20:41.095Z,87.13
2017-11-16T00:21:21.493Z,87.51
2017-11-16T00:22:01.895Z,88.08
2017-11-16T00:22:42.243Z,87.98
2017-11-16T00:23:22.723Z,88.18
2017-11-16T00:24:03.209Z,87.98
2017-11-16T00:24:43.606Z,88.56
2017-11-16T00:25:24.086Z,88.46
2017-11-16T00:26:04.496Z,88.37
2017-11-16T00:26:44.871Z,88.27
2017-11-16T00:27:25.530Z,88.18
2017-11-16T00:28:05.715Z,88.93
2017-11-16T00:28:46.155Z,88.46
2017-11-16T00:29:26.660Z,88.18
2017-11-16T00:30:06.930Z,88.93
2017-11-16T00:30:47.372Z,88.75
2017-11-16T00:31:27.900Z,88.65
2017-11-16T00:32:08.368Z,88.84
2017-11-16T00:32:48.734Z,88.65
2017-11-16T00:33:29.195Z,88.65
2017-11-16T00:34:12.330Z,88.75
2017-11-16T00:34:52.633Z,88.93
2017-11-16T00:35:33.202Z,88.65
2017-11-16T00:36:13.564Z,88.56
2017-11-16T00:36:54.095Z,88.6
2017-11-16T00:37:34.369Z,88.7
2017-11-16T00:38:14.780Z,88.93
2017-11-16T00:38:55.183Z,89.13
2017-11-16T00:39:35.578Z,89.56
2017-11-16T00:40:15.947Z,89.47
2017-11-16T00:40:56.425Z,89.75
2017-11-16T00:41:36.850Z,89.84
2017-11-16T00:42:17.273Z,89.37
2017-11-16T00:42:57.810Z,89.27
2017-11-16T00:43:38.154Z,89.47
2017-11-16T00:44:18.669Z,89.47
2017-11-16T00:44:58.991Z,89.56
2017-11-16T00:45:39.347Z,89.56
2017-11-16T00:46:19.815Z,89.56
2017-11-16T00:47:00.258Z,89.94
2017-11-16T00:47:40.720Z,90.03
2017-11-16T00:48:21.195Z,90.03
2017-11-16T00:49:01.655Z,90.61
2017-11-16T00:49:42.129Z,90.22
2017-11-16T00:50:22.537Z,89.84
2017-11-16T00:51:02.980Z,90.03
2017-11-16T00:51:43.271Z,90.32
2017-11-16T00:52:23.742Z,90.03
2017-11-16T00:53:04.150Z,90.03
2017-11-16T00:53:44.543Z,90.42
2017-11-16T00:54:24.881Z,90.42
2017-11-16T00:55:05.395Z,89.47
2017-11-16T00:55:45.721Z,89.56
2017-11-16T00:56:26.146Z,89.75
2017-11-16T00:57:06.575Z,89.47
2017-11-16T00:57:47.005Z,89.08
2017-11-16T00:58:27.321Z,89.56
2017-11-16T00:59:07.764Z,89.27
2017-11-16T00:59:48.351Z,89.84
2017-11-16T01:00:28.798Z,90.22
2017-11-16T01:01:09.348Z,90.13
2017-11-16T01:01:49.714Z,90.13
2017-11-16T01:02:30.182Z,90.51
2017-11-16T01:03:10.475Z,90.89
2017-11-16T01:03:50.874Z,91.17
2017-11-16T01:04:31.308Z,91.17
2017-11-16T01:05:11.742Z,91.13
2017-11-16T01:05:52.954Z,91.42
2017-11-16T01:06:33.123Z,91.13
2017-11-16T01:07:13.558Z,91.32
2017-11-16T01:07:53.942Z,91.99
2017-11-16T01:08:34.479Z,91.99
2017-11-16T01:09:14.942Z,91.89
2017-11-16T01:09:55.369Z,91.8
2017-11-16T01:10:35.742Z,91.8
2017-11-16T01:11:16.081Z,91.89
2017-11-16T01:11:56.962Z,91.89
2017-11-16T01:12:37.413Z,91.89
2017-11-16T01:13:17.826Z,91.13
2017-11-16T01:13:58.190Z,91.03
2017-11-16T01:14:38.555Z,91.42
2017-11-16T01:15:18.975Z,91.42
2017-11-16T01:15:59.361Z,91.61
2017-11-16T01:16:39.821Z,91.13
2017-11-16T01:17:20.238Z,91.42
2017-11-16T01:18:00.672Z,91.61
2017-11-16T01:18:41.100Z,91.42
2017-11-16T01:19:21.445Z,90.84
2017-11-16T01:20:01.877Z,91.13
2017-11-16T01:20:42.204Z,91.42
2017-11-16T01:21:22.711Z,91.13
2017-11-16T01:22:03.148Z,91.03
2017-11-16T01:22:43.566Z,91.22
2017-11-16T01:23:23.929Z,91.03
2017-11-16T01:24:04.341Z,90.94
2017-11-16T01:24:44.786Z,91.03
2017-11-16T01:25:25.149Z,91.13
2017-11-16T01:26:05.518Z,90.75
2017-11-16T01:26:45.939Z,91.03
2017-11-16T01:27:26.319Z,91.03
2017-11-16T01:28:07.031Z,91.03
2017-11-16T01:28:47.225Z,91.32
2017-11-16T01:29:27.673Z,91.7
2017-11-16T01:30:08.117Z,91.8
2017-11-16T01:30:48.454Z,91.51
2017-11-16T01:31:28.976Z,91.89
2017-11-16T01:32:09.289Z,91.89
2017-11-16T01:32:49.726Z,92.08
2017-11-16T01:33:30.082Z,91.7
2017-11-16T01:34:10.557Z,91.7
2017-11-16T01:34:50.874Z,91.42
2017-11-16T01:35:31.312Z,91.13
2017-11-16T01:36:11.792Z,91.13
2017-11-16T01:36:52.231Z,91.51
2017-11-16T01:37:32.588Z,91.13
2017-11-16T01:38:13.017Z,91.7
2017-11-16T01:38:53.469Z,91.13
2017-11-16T01:39:33.891Z,91.13
2017-11-16T01:40:14.349Z,91.13
2017-11-16T01:40:54.835Z,91.42
2017-11-16T01:41:35.159Z,91.51
2017-11-16T01:42:15.569Z,91.32
2017-11-16T01:42:56.055Z,92.08
2017-11-16T01:43:36.401Z,91.42
2017-11-16T01:44:16.814Z,91.13
2017-11-16T01:44:57.259Z,91.22
2017-11-16T01:45:37.600Z,91.42
2017-11-16T01:46:18.007Z,91.22
2017-11-16T01:46:58.461Z,91.32
2017-11-16T01:47:38.873Z,91.61
2017-11-16T01:48:19.274Z,90.84
2017-11-16T01:48:59.695Z,90.47
2017-11-16T01:49:40.088Z,90.84
2017-11-16T01:50:20.395Z,90.94
2017-11-16T01:51:01.000Z,90.18
2017-11-16T01:51:41.296Z,90.08
2017-11-16T01:52:21.716Z,90.47
2017-11-16T01:53:02.167Z,90.66
2017-11-16T01:53:42.663Z,90.66
2017-11-16T01:54:22.934Z,90.28
2017-11-16T01:55:03.323Z,90.28
2017-11-16T01:55:43.761Z,90.56
2017-11-16T01:56:24.342Z,90.08
2017-11-16T01:57:04.823Z,90.47
2017-11-16T01:57:45.255Z,90.94
2017-11-16T01:58:25.624Z,90.94
2017-11-16T01:59:06.121Z,90.56
2017-11-16T01:59:46.543Z,90.28
2017-11-16T02:00:26.954Z,89.99
2017-11-16T02:01:07.717Z,90.28
2017-11-16T02:01:47.886Z,90.28
2017-11-16T02:02:28.356Z,90.18
2017-11-16T02:03:08.753Z,89.99
2017-11-16T02:03:49.123Z,90.08
2017-11-16T02:04:29.612Z,90.08
2017-11-16T02:05:10.121Z,90.18
2017-11-16T02:05:50.472Z,89.89
2017-11-16T02:06:30.966Z,90.18
2017-11-16T02:07:11.369Z,89.99
2017-11-16T02:07:51.689Z,89.7
2017-11-16T02:08:32.166Z,89.8
2017-11-16T02:09:12.513Z,89.51
2017-11-16T02:09:52.999Z,89.32
2017-11-16T02:10:33.394Z,89.7
2017-11-16T02:11:13.741Z,89.61
2017-11-16T02:11:54.380Z,88.85
2017-11-16T02:12:34.622Z,88.75
2017-11-16T02:13:15.121Z,88.75
2017-11-16T02:13:55.430Z,89.04
2017-11-16T02:14:35.758Z,88.85
2017-11-16T02:15:16.174Z,88.85
2017-11-16T02:15:56.693Z,88.75
2017-11-16T02:16:37.122Z,88.66
2017-11-16T02:17:17.382Z,89.14
2017-11-16T02:17:57.842Z,88.75
2017-11-16T02:18:38.257Z,88.46
2017-11-16T02:19:18.738Z,89.32
2017-11-16T02:19:59.130Z,88.94
2017-11-16T02:20:39.619Z,88.46
2017-11-16T02:21:20.103Z,88.85
2017-11-16T02:22:00.524Z,88.18
2017-11-16T02:22:40.955Z,88.09
2017-11-16T02:23:21.365Z,88.85
2017-11-16T02:24:01.871Z,88.56
2017-11-16T02:24:42.352Z,88.66
2017-11-16T02:25:22.672Z,88.94
2017-11-16T02:26:03.220Z,88.85
2017-11-16T02:26:43.686Z,88.75
2017-11-16T02:27:24.006Z,88.66
2017-11-16T02:28:04.504Z,88.37
2017-11-16T02:28:44.941Z,87.9
2017-11-16T02:29:25.337Z,87.8
2017-11-16T02:30:05.754Z,87.71
2017-11-16T02:30:46.145Z,87.71
2017-11-16T02:31:26.587Z,87.71
2017-11-16T02:32:07.857Z,87.9
2017-11-16T02:32:47.375Z,87.42
2017-11-16T02:33:27.931Z,87.8
2017-11-16T02:34:08.405Z,88.09
2017-11-16T02:34:48.764Z,87.9
2017-11-16T02:35:29.213Z,88.46
2017-11-16T02:36:09.823Z,88.66
2017-11-16T02:36:50.108Z,87.9
2017-11-16T02:37:30.498Z,88.75
2017-11-16T02:38:10.912Z,88.66
2017-11-16T02:38:51.325Z,88.71
2017-11-16T02:39:31.674Z,88.66
2017-11-16T02:40:12.111Z,88.71
2017-11-16T02:40:52.561Z,88.71
2017-11-16T02:41:32.953Z,88.52
2017-11-16T02:42:13.335Z,88.52
2017-11-16T02:42:53.740Z,88.66
2017-11-16T02:43:34.112Z,89.09
2017-11-16T02:44:14.505Z,88.52
2017-11-16T02:44:54.937Z,89.28
2017-11-16T02:45:35.379Z,88.9
2017-11-16T02:46:15.776Z,88.85
2017-11-16T02:46:56.297Z,88.52
2017-11-16T02:47:36.649Z,88.8
2017-11-16T02:48:17.087Z,88.9
2017-11-16T02:48:57.534Z,88.61
2017-11-16T02:49:37.913Z,88.52
2017-11-16T02:50:18.265Z,88.42
2017-11-16T02:50:58.765Z,88.52
2017-11-16T02:51:39.131Z,89.37
2017-11-16T02:52:19.651Z,89.75
2017-11-16T02:52:59.995Z,89.18
2017-11-16T02:53:40.572Z,90.04
2017-11-16T02:54:21.075Z,89.09
2017-11-16T02:55:01.395Z,89.18
2017-11-16T02:55:41.771Z,89.18
2017-11-16T02:56:22.168Z,88.71
2017-11-16T02:57:02.646Z,89.09
2017-11-16T02:57:43.058Z,89.37
2017-11-16T02:58:23.482Z,88.71
2017-11-16T02:59:03.905Z,89.37
2017-11-16T02:59:44.297Z,88.23
2017-11-16T03:00:24.672Z,89.28
2017-11-16T03:01:05.040Z,89.28
2017-11-16T03:01:45.476Z,88.9
2017-11-16T03:02:25.771Z,87.95
2017-11-16T03:03:06.298Z,88.61
2017-11-16T03:03:46.643Z,88.52
2017-11-16T03:04:27.138Z,88.71
2017-11-16T03:05:07.538Z,89.09
2017-11-16T03:05:47.913Z,89.18
2017-11-16T03:06:28.383Z,88.52
2017-11-16T03:07:09.029Z,87.99
2017-11-16T03:07:49.290Z,87.95
2017-11-16T03:08:29.723Z,88.04
2017-11-16T03:09:10.198Z,88.04
2017-11-16T03:09:50.591Z,88.71
2017-11-16T03:10:31.008Z,88.75
2017-11-16T03:11:11.436Z,87.99
2017-11-16T03:11:51.923Z,88.09
2017-11-16T03:12:32.360Z,87.52
2017-11-16T03:13:12.782Z,87.99
2017-11-16T03:13:53.170Z,87.71
2017-11-16T03:14:33.717Z,87.8
2017-11-16T03:15:14.057Z,87.61
2017-11-16T03:15:54.531Z,87.04
2017-11-16T03:16:34.896Z,87.42
2017-11-16T03:17:15.296Z,87.61
2017-11-16T03:17:55.746Z,87.32
2017-11-16T03:18:36.201Z,86.85
2017-11-16T03:19:16.680Z,86.85
2017-11-16T03:19:57.015Z,87.04
2017-11-16T03:20:37.487Z,87.28
2017-11-16T03:21:17.939Z,87.99
2017-11-16T03:21:58.473Z,88.46
2017-11-16T03:22:38.851Z,87.9
2017-11-16T03:23:19.264Z,87.61
2017-11-16T03:23:59.690Z,87.13
2017-11-16T03:24:40.078Z,87.13
2017-11-16T03:25:20.540Z,87.04
2017-11-16T03:26:01.056Z,86.47
2017-11-16T03:26:41.345Z,86.47
2017-11-16T03:27:21.813Z,86.66
2017-11-16T03:28:02.229Z,86.57
2017-11-16T03:28:42.646Z,87.13
2017-11-16T03:29:23.100Z,86.94
2017-11-16T03:30:03.462Z,87.9
2017-11-16T03:30:43.924Z,87.8
2017-11-16T03:31:24.306Z,87.04
2017-11-16T03:32:04.750Z,87.23
2017-11-16T03:32:45.172Z,87.23
2017-11-16T03:33:25.648Z,87.23
2017-11-16T03:34:05.991Z,86.38
2017-11-16T03:34:46.516Z,86.18
2017-11-16T03:35:26.929Z,85.61
2017-11-16T03:36:07.300Z,85.04
2017-11-16T03:36:47.704Z,85.61
2017-11-16T03:37:28.180Z,85.52
2017-11-16T03:38:08.561Z,85.52
2017-11-16T03:38:48.995Z,85.42
2017-11-16T03:39:29.491Z,85.33
2017-11-16T03:40:09.811Z,85.33
2017-11-16T03:40:50.312Z,85.52
2017-11-16T03:41:30.696Z,85.14
2017-11-16T03:42:11.228Z,85.8
2017-11-16T03:42:51.549Z,86.09
2017-11-16T03:43:31.969Z,85.52
2017-11-16T03:44:12.333Z,85.42
2017-11-16T03:44:52.860Z,86.09
2017-11-16T03:45:33.176Z,86.09
2017-11-16T03:46:13.565Z,86.28
2017-11-16T03:46:53.906Z,85.9
2017-11-16T03:47:34.302Z,86.09
2017-11-16T03:48:14.756Z,85.61
2017-11-16T03:48:55.282Z,86.57
2017-11-16T03:49:35.600Z,86.85
2017-11-16T03:50:15.953Z,85.99
2017-11-16T03:50:56.349Z,86.47
2017-11-16T03:51:36.837Z,87.13
2017-11-16T03:52:17.290Z,87.23
2017-11-16T03:52:57.788Z,86.76
2017-11-16T03:53:38.149Z,87.04
2017-11-16T03:54:18.546Z,87.13
2017-11-16T03:54:59.036Z,86.28
2017-11-16T03:55:39.452Z,86.76
2017-11-16T03:56:19.783Z,87.09
2017-11-16T03:57:00.268Z,86.71
2017-11-16T03:57:40.760Z,88.52
2017-11-16T03:58:21.281Z,88.8
2017-11-16T03:59:01.759Z,88.04
2017-11-16T03:59:42.201Z,88.71
2017-11-16T04:00:22.600Z,88.71
2017-11-16T04:01:02.973Z,88.23
2017-11-16T04:01:43.612Z,88.71
2017-11-16T05:10:43.067Z,90.66
2017-11-16T05:11:23.920Z,90
2017-11-16T05:12:04.570Z,90.37
2017-11-16T05:12:44.766Z,90
2017-11-16T05:13:25.247Z,89.23
2017-11-16T05:14:05.610Z,89.42
2017-11-16T05:14:46.049Z,89.23
2017-11-16T05:15:26.425Z,88.67
2017-11-16T05:16:06.913Z,89.56
2017-11-16T05:16:47.500Z,89.56
2017-11-16T05:17:27.828Z,89.66
2017-11-16T05:18:08.220Z,88.71
2017-11-16T05:18:48.817Z,88.71
2017-11-16T05:19:29.111Z,87.95
2017-11-16T05:20:09.515Z,88.61
2017-11-16T05:20:49.974Z,89.47
2017-11-16T05:21:30.419Z,89.47
2017-11-16T05:22:10.806Z,88.61
2017-11-16T05:22:51.290Z,87.95
2017-11-16T05:23:31.836Z,88.13
2017-11-16T05:24:12.252Z,88.52
2017-11-16T05:24:52.651Z,88.52
2017-11-16T05:25:32.994Z,87.85
2017-11-16T05:26:13.487Z,87.38
2017-11-16T05:26:53.874Z,87.66
2017-11-16T05:27:34.266Z,86.9
2017-11-16T05:28:14.725Z,88.71
2017-11-16T05:28:55.122Z,88.42
2017-11-16T05:29:35.499Z,87.66
2017-11-16T05:30:15.918Z,88.13
2017-11-16T05:30:56.442Z,87.95
2017-11-16T05:31:36.842Z,88.52
2017-11-16T05:32:17.258Z,87.85
2017-11-16T05:32:57.655Z,86.99
2017-11-16T05:33:38.156Z,86.99
2017-11-16T05:34:18.522Z,87.09
2017-11-16T05:34:59.076Z,86.61
2017-11-16T05:35:39.483Z,87.28
2017-11-16T05:36:19.787Z,87.66
2017-11-16T05:37:00.310Z,87.76
2017-11-16T05:37:40.795Z,88.71
2017-11-16T05:38:21.401Z,88.04
2017-11-16T05:39:01.981Z,88.52
2017-11-16T05:39:42.482Z,87.47
2017-11-16T05:40:23.003Z,87.38
2017-11-16T05:41:03.547Z,87.19
2017-11-16T05:41:45.497Z,86.33
2017-11-16T05:42:26.676Z,87.09
2017-11-16T05:43:10.977Z,87.57
2017-11-16T05:43:51.253Z,87.09
2017-11-16T05:44:31.766Z,86.9
2017-11-16T05:45:12.489Z,86.8
2017-11-16T05:45:53.000Z,87.19
2017-11-16T05:46:33.338Z,87.28
2017-11-16T05:47:13.786Z,88.13
2017-11-16T05:47:54.217Z,88.23
2017-11-16T05:48:34.570Z,88.09
2017-11-16T05:49:15.114Z,87.13
2017-11-16T05:49:55.725Z,85.42
2017-11-16T05:50:36.284Z,84
2017-11-16T05:51:16.667Z,83.9
2017-11-16T05:51:56.998Z,84.76
2017-11-16T05:52:37.575Z,84.76
2017-11-16T05:53:17.963Z,85.24
2017-11-16T05:53:58.515Z,85.42
2017-11-16T05:54:38.708Z,84.56
2017-11-16T05:55:19.066Z,85.24
2017-11-16T05:55:59.583Z,84.09
2017-11-16T05:56:39.949Z,85.42
2017-11-16T05:57:20.439Z,85.33
2017-11-16T05:58:00.844Z,83.23
2017-11-16T05:58:41.932Z,82.86
2017-11-16T05:59:22.352Z,82.38
2017-11-16T06:00:03.033Z,82.38
2017-11-16T06:00:43.393Z,82.28
2017-11-16T06:01:23.797Z,82.95
2017-11-16T06:02:04.251Z,82.86
2017-11-16T06:02:44.764Z,82.95
2017-11-16T06:03:25.416Z,83.9
2017-11-16T06:04:05.905Z,85.42
2017-11-16T06:04:46.495Z,85.61
2017-11-16T06:05:26.884Z,85.52
2017-11-16T06:06:07.377Z,84.85
2017-11-16T06:06:47.775Z,85.14
2017-11-16T06:07:28.271Z,84.56
2017-11-16T06:08:08.834Z,83.42
2017-11-16T06:08:49.544Z,83.52
2017-11-16T06:09:29.970Z,83.62
2017-11-16T06:10:10.364Z,84
2017-11-16T06:10:50.890Z,84.42
2017-11-16T06:11:31.276Z,85.08
2017-11-16T06:12:12.296Z,83.75
2017-11-16T06:12:52.666Z,84.04
2017-11-16T06:13:33.240Z,83.75
2017-11-16T06:14:13.587Z,84.04
2017-11-16T06:14:54.068Z,83.09
2017-11-16T06:15:34.582Z,83.47
2017-11-16T06:16:15.129Z,82.42
2017-11-16T06:16:55.537Z,82.9
2017-11-16T06:17:36.341Z,82.61
2017-11-16T06:18:16.716Z,83.75
2017-11-16T06:18:56.945Z,83.56
2017-11-16T06:19:37.372Z,82.51
2017-11-16T06:20:17.775Z,82.14
2017-11-16T06:20:58.200Z,82.04
2017-11-16T06:21:38.809Z,79.85
2017-11-16T06:22:19.261Z,80.99
2017-11-16T06:22:59.676Z,82.04
2017-11-16T06:23:40.092Z,80.61
2017-11-16T06:24:20.965Z,79.19
2017-11-16T06:25:01.585Z,78.61
2017-11-16T06:25:41.706Z,78.33
2017-11-16T06:26:22.169Z,80.33
2017-11-16T06:27:02.738Z,80
2017-11-16T06:27:43.265Z,79.57
2017-11-16T06:28:23.563Z,80.86
2017-11-16T06:29:04.361Z,80.13
2017-11-16T06:29:44.397Z,79.52
2017-11-16T06:30:24.813Z,79.43
2017-11-16T06:31:05.341Z,79.91
2017-11-16T06:31:46.556Z,80.76
2017-11-16T06:32:27.000Z,82
2017-11-16T06:33:08.486Z,83.33
2017-11-16T06:33:48.492Z,81.71
2017-11-16T06:34:28.988Z,80.1
2017-11-16T06:35:09.496Z,80.1
2017-11-16T06:35:50.004Z,81.71
2017-11-16T06:36:30.557Z,81.33
2017-11-16T06:37:11.161Z,80.1
2017-11-16T06:37:53.903Z,79.91
2017-11-16T06:38:34.050Z,80.57
2017-11-16T06:39:14.548Z,81.33
2017-11-16T06:39:55.217Z,83.71
2017-11-16T06:40:35.586Z,82.67
2017-11-16T06:41:16.054Z,82.99
2017-11-16T06:41:56.405Z,82.61
2017-11-16T06:42:37.002Z,81.47
2017-11-16T06:43:17.644Z,81.95
2017-11-16T06:43:59.187Z,81.37
2017-11-16T06:44:40.078Z,81.28
2017-11-16T06:45:20.524Z,81.18
2017-11-16T06:46:01.114Z,80.71
2017-11-16T06:46:41.706Z,80.13
2017-11-16T06:47:22.171Z,80.8
2017-11-16T06:48:03.224Z,81.47
2017-11-16T06:48:43.851Z,80.61
2017-11-16T06:49:24.401Z,80.1
2017-11-16T06:50:04.678Z,80.9
2017-11-16T06:50:45.146Z,81.28
2017-11-16T06:51:26.485Z,80.86
2017-11-16T06:52:06.030Z,80.57
2017-11-16T06:52:46.640Z,79.62
2017-11-16T06:53:26.944Z,80.76
2017-11-16T06:54:07.642Z,81.52
2017-11-16T06:54:48.166Z,82.86
2017-11-16T06:55:29.197Z,82.57
2017-11-16T06:56:09.702Z,82.9
2017-11-16T06:56:50.328Z,81.28
2017-11-16T06:57:30.691Z,81.09
2017-11-16T06:58:11.212Z,80.33
2017-11-16T06:58:51.667Z,80.52
2017-11-16T06:59:32.427Z,82.04
2017-11-16T07:00:12.852Z,81.47
2017-11-16T07:00:53.384Z,80.42
2017-11-16T07:01:34.399Z,79.09
2017-11-16T07:02:14.755Z,77.28
2017-11-16T07:02:55.206Z,77.95
2017-11-16T07:03:35.894Z,78.52
2017-11-16T07:04:16.450Z,79.19
2017-11-16T07:04:56.875Z,79.57
2017-11-16T07:05:37.474Z,81.09
2017-11-16T07:06:17.886Z,80.9
2017-11-16T07:06:58.338Z,80.52
2017-11-16T07:07:38.889Z,79.75
2017-11-16T07:08:19.344Z,78.04
2017-11-16T07:08:59.768Z,78.61
2017-11-16T07:09:40.277Z,78.61
2017-11-16T07:10:20.717Z,80.13
2017-11-16T07:11:01.185Z,80.99
2017-11-16T07:11:41.510Z,80.04
2017-11-16T07:12:21.994Z,79.19
2017-11-16T07:13:02.644Z,79.94
2017-11-16T07:13:43.167Z,79.09
2017-11-16T07:14:23.511Z,78.42
2017-11-16T07:15:03.945Z,79.66
2017-11-16T07:15:45.669Z,79.47
2017-11-16T07:16:25.751Z,80.9
2017-11-16T07:17:07.071Z,80.99
2017-11-16T07:17:48.118Z,80.8
2017-11-16T07:18:28.001Z,79.47
2017-11-16T07:19:08.473Z,79.28
2017-11-16T07:19:48.924Z,80.13
2017-11-16T07:20:30.682Z,80.23
2017-11-16T07:21:11.263Z,78.99
2017-11-16T07:21:51.546Z,79.38
2017-11-16T07:22:33.491Z,80.13
2017-11-16T07:23:14.542Z,79.66
2017-11-16T07:23:55.511Z,79.38
2017-11-16T07:24:35.556Z,78.04
2017-11-16T07:25:15.947Z,77.56
2017-11-16T07:25:56.427Z,78.71
2017-11-16T07:26:37.799Z,78.8
2017-11-16T07:27:19.306Z,78.52
2017-11-16T07:28:00.179Z,79.75
2017-11-16T07:28:41.187Z,79.47
2017-11-16T07:29:21.533Z,78.52
2017-11-16T07:30:02.010Z,76.9
2017-11-16T07:30:42.921Z,77.09
2017-11-16T07:31:23.441Z,77.66
2017-11-16T07:32:03.988Z,77.34
2017-11-16T07:32:44.599Z,78.14
2017-11-16T07:33:24.888Z,77.62
2017-11-16T07:34:05.293Z,78.67
2017-11-16T07:34:46.183Z,78.86
2017-11-16T07:35:26.521Z,80.38
2017-11-16T07:36:06.993Z,80.29
2017-11-16T07:36:47.527Z,81.81
2017-11-16T07:37:28.178Z,81.33
2017-11-16T07:38:08.699Z,80
2017-11-16T07:38:48.990Z,80.1
2017-11-16T07:39:29.438Z,80.86
2017-11-16T07:40:09.819Z,80.86
2017-11-16T07:40:50.262Z,80.1
2017-11-16T07:41:31.180Z,79.91
2017-11-16T07:42:11.800Z,80.47
2017-11-16T07:42:51.942Z,80.1
2017-11-16T07:43:32.541Z,78.57
2017-11-16T07:44:12.982Z,78.19
2017-11-16T07:44:53.429Z,80.1
2017-11-16T07:45:33.869Z,80
2017-11-16T07:46:14.388Z,78.77
2017-11-16T07:46:54.875Z,78.96
2017-11-16T07:47:35.358Z,79.43
2017-11-16T07:48:15.874Z,80.1
2017-11-16T07:48:56.157Z,78.96
2017-11-16T07:49:36.728Z,79.43
2017-11-16T07:50:17.366Z,80
2017-11-16T07:50:57.824Z,80.76
2017-11-16T07:51:38.153Z,80.38
2017-11-16T07:52:19.049Z,79.91
2017-11-16T07:57:44.460Z,80.38
2017-11-16T07:58:26.267Z,79.14
2017-11-16T07:59:06.132Z,79.62
2017-11-16T07:59:46.717Z,79.91
2017-11-16T08:00:27.204Z,80.19
2017-11-16T08:01:07.644Z,79.14
2017-11-16T08:01:48.725Z,79.62
2017-11-16T08:02:29.240Z,81.33
2017-11-16T08:03:09.594Z,81.33
2017-11-16T08:03:50.363Z,81.33
2017-11-16T08:04:30.889Z,80.76
2017-11-16T08:05:11.368Z,79.72
2017-11-16T08:05:51.810Z,81.43
2017-11-16T08:06:33.160Z,81.43
2017-11-16T08:07:13.731Z,80
2017-11-16T08:07:54.291Z,80.95
2017-11-16T08:08:34.845Z,80.57
2017-11-16T08:09:15.216Z,81.24
2017-11-16T08:09:55.897Z,81.05
2017-11-16T08:10:36.309Z,81.52
2017-11-16T08:11:16.801Z,82
2017-11-16T08:11:57.314Z,80.76
2017-11-16T08:12:37.746Z,80.76
2017-11-16T08:13:18.107Z,80.1
2017-11-16T08:13:58.854Z,81.52
2017-11-16T08:14:39.597Z,81.52
2017-11-16T08:15:20.637Z,82
2017-11-16T08:16:00.242Z,81.24
2017-11-16T08:16:40.685Z,80.1
2017-11-16T08:17:21.145Z,80
2017-11-16T08:18:01.650Z,78.67
2017-11-16T08:18:42.244Z,80.19
2017-11-16T08:19:22.663Z,81.43
2017-11-16T08:20:03.160Z,80.86
2017-11-16T08:20:43.538Z,81.14
2017-11-16T08:21:24.279Z,81.9
2017-11-16T08:22:04.742Z,81.76
2017-11-16T08:22:45.294Z,80.9
2017-11-16T08:23:25.672Z,79.57
2017-11-16T08:24:06.524Z,79.75
2017-11-16T08:24:46.956Z,80.23
2017-11-16T08:25:28.822Z,79.66
2017-11-16T08:26:09.873Z,78.99
2017-11-16T08:26:53.656Z,79.57
2017-11-16T08:27:35.868Z,77.85
2017-11-16T08:28:15.901Z,77.56
2017-11-16T08:28:56.680Z,77.66
2017-11-16T08:29:38.013Z,77.56
2017-11-16T08:30:18.005Z,78.33
2017-11-16T08:30:58.505Z,79.19
2017-11-16T08:31:38.913Z,79.28
2017-11-16T08:32:19.364Z,78.42
2017-11-16T08:33:01.757Z,78.99
2017-11-16T08:33:42.193Z,78.8
2017-11-16T08:34:22.669Z,78.8
2017-11-16T08:35:02.959Z,79.09
2017-11-16T08:35:43.768Z,79.85
2017-11-16T08:36:24.033Z,78.33
2017-11-16T08:37:06.250Z,77.37
2017-11-16T08:37:47.321Z,77.85
2017-11-16T08:38:28.777Z,78.52
2017-11-16T08:39:08.729Z,78.52
2017-11-16T08:39:49.257Z,78.61
2017-11-16T08:40:29.698Z,79.57
2017-11-16T08:41:10.360Z,79.47
2017-11-16T08:41:50.821Z,79.19
2017-11-16T08:42:31.258Z,78.99
2017-11-16T08:43:12.173Z,79.57
2017-11-16T08:43:52.613Z,78.33
2017-11-16T08:44:33.172Z,77.37
2017-11-16T08:45:13.787Z,78.42
2017-11-16T08:45:54.437Z,78.99
2017-11-16T08:46:35.057Z,79.32
2017-11-16T08:47:16.134Z,79.32
2017-11-16T08:47:57.410Z,79.03
2017-11-16T08:48:38.155Z,78.46
2017-11-16T08:49:18.627Z,78.56
2017-11-16T08:49:58.951Z,77.42
2017-11-16T08:50:39.422Z,76.56
2017-11-16T08:51:20.020Z,77.42
2017-11-16T08:52:00.537Z,76.37
2017-11-16T08:52:41.246Z,76.37
2017-11-16T08:53:21.620Z,76.56
2017-11-16T08:54:02.461Z,75.79
2017-11-16T08:54:43.006Z,77.42
2017-11-16T08:55:23.672Z,78.37
2017-11-16T08:56:04.085Z,79.13
2017-11-16T08:56:44.915Z,78.23
2017-11-16T08:57:25.125Z,78.99
2017-11-16T08:58:05.512Z,79.13
2017-11-16T08:58:46.356Z,79.22
2017-11-16T08:59:26.819Z,79.13
2017-11-16T09:00:07.366Z,78.56
2017-11-16T09:00:48.070Z,78.08
2017-11-16T09:01:28.337Z,78.27
2017-11-16T09:02:08.843Z,78.08
2017-11-16T09:02:49.783Z,78.37
2017-11-16T09:03:30.310Z,78.37
2017-11-16T09:04:10.824Z,78.27
2017-11-16T09:11:07.100Z,76.94
2017-11-16T09:11:47.386Z,76.65
2017-11-16T09:12:28.029Z,76.08
2017-11-16T09:13:08.237Z,76.27
2017-11-16T09:13:48.696Z,76.37
2017-11-16T09:14:29.211Z,77.32
2017-11-16T09:15:09.573Z,75.99
2017-11-16T09:15:50.110Z,76.27
2017-11-16T09:16:30.463Z,76.65
2017-11-16T09:17:10.909Z,76.56
2017-11-16T09:17:51.350Z,78.56
2017-11-16T09:18:31.907Z,77.98
2017-11-16T09:19:13.315Z,77.95
2017-11-16T09:19:53.774Z,77.37
2017-11-16T09:20:34.385Z,78.52
2017-11-16T09:21:14.763Z,77.85
2017-11-16T09:21:57.031Z,79.19
2017-11-16T09:22:37.492Z,79.75
2017-11-16T09:23:17.934Z,78.99
2017-11-16T09:24:00.742Z,78.52
2017-11-16T09:24:40.774Z,78.99
2017-11-16T09:25:21.229Z,77.76
2017-11-16T09:26:01.691Z,79.19
2017-11-16T09:26:42.607Z,80.13
2017-11-16T09:27:24.051Z,80.23
2017-11-16T09:28:05.828Z,79.8
2017-11-16T09:28:47.238Z,79.03
2017-11-16T09:29:27.411Z,77.7
2017-11-16T09:30:08.168Z,77.22
2017-11-16T09:30:48.702Z,76.75
2017-11-16T09:31:29.284Z,77.8
2017-11-16T09:32:10.858Z,76.94
2017-11-16T09:32:50.438Z,77.09
2017-11-16T09:33:30.799Z,77.85
2017-11-16T09:34:11.379Z,78.99
2017-11-16T09:34:54.670Z,78.52
2017-11-16T09:35:37.778Z,78.71
2017-11-16T09:36:18.123Z,78.8
2017-11-16T09:36:58.874Z,78.04
2017-11-16T09:37:40.922Z,78.33
2017-11-16T09:38:21.949Z,79.66
2017-11-16T09:39:02.339Z,78.99
2017-11-16T09:39:42.889Z,79.09
2017-11-16T09:40:23.409Z,78.52
2017-11-16T09:41:03.687Z,77.95
2017-11-16T09:41:44.251Z,78.52
2017-11-16T09:42:30.952Z,78.14
2017-11-16T09:43:11.251Z,78.04
2017-11-16T09:43:51.876Z,78.8
2017-11-16T09:44:32.326Z,78.52
2017-11-16T09:45:12.809Z,79.19
2017-11-16T09:45:53.219Z,78.33
2017-11-16T09:46:33.870Z,77.66
2017-11-16T09:47:15.319Z,77.37
2017-11-16T09:47:59.989Z,78.9
2017-11-16T09:48:40.357Z,78.52
2017-11-16T09:49:20.940Z,78.99
2017-11-16T09:50:01.400Z,78.85
2017-11-16T09:50:42.280Z,77.32
2017-11-16T09:51:22.760Z,76.37
2017-11-16T09:52:03.708Z,75.51
2017-11-16T09:52:44.132Z,75.36
2017-11-16T09:53:24.716Z,75.64
2017-11-16T09:54:05.134Z,73.93
2017-11-16T09:54:45.754Z,73.11
2017-11-16T09:55:26.205Z,73.01
2017-11-16T09:56:07.055Z,72.96
2017-11-16T09:56:49.649Z,71.62
2017-11-16T09:57:29.679Z,71.43
2017-11-16T09:58:10.102Z,71.04
2017-11-16T09:58:50.636Z,70.38
2017-11-16T09:59:31.147Z,69.43
2017-11-16T10:00:11.640Z,70.09
2017-11-16T10:00:51.888Z,70.38
2017-11-16T10:01:35.626Z,69.23
2017-11-16T10:02:16.374Z,68.98
2017-11-16T10:02:57.689Z,68.6
2017-11-16T10:03:38.407Z,68.51
2017-11-16T10:49:06.316Z,66.47